Time;durP1;ratioP1;P1;durP2;ratioP2;P2;SDS_P1;SDS_P2;PMS_P1;PMS_P2;Temp;Humidity;BMP_temperature;BMP_pressure;BME280_temperature;BME280_humidity;BME280_pressure;Samples;Min_cycle;Max_cycle;Signal;HPM_P1;HPM_P2
2022/12/27 00:01:50;;;;;;;11.43;5.00;;;4.40;91.40;;;;;;4991755;28;20041;-74
2022/12/27 00:04:16;;;;;;;18.25;5.32;;;4.40;91.40;;;;;;4994290;28;20027;-74
2022/12/27 00:06:42;;;;;;;13.98;4.80;;;4.40;91.50;;;;;;4990406;28;20639;-76
2022/12/27 00:09:08;;;;;;;14.70;4.88;;;4.40;91.60;;;;;;4992935;28;20026;-75
2022/12/27 00:11:34;;;;;;;15.50;4.97;;;4.40;91.60;;;;;;4996746;28;20038;-76
2022/12/27 00:14:01;;;;;;;14.77;5.00;;;4.40;91.70;;;;;;4998368;28;20049;-79
2022/12/27 00:16:27;;;;;;;12.60;4.85;;;4.40;91.70;;;;;;4987880;28;20041;-73
2022/12/27 00:18:53;;;;;;;14.52;5.22;;;4.30;92.00;;;;;;4983199;28;20391;-74
2022/12/27 00:21:20;;;;;;;11.82;4.60;;;4.30;92.10;;;;;;4987571;28;20290;-74
2022/12/27 00:23:48;;;;;;;12.13;4.70;;;4.30;92.40;;;;;;4997712;28;20499;-75
2022/12/27 00:26:24;;;;;;;15.02;5.35;;;4.30;92.40;;;;;;5010479;28;20470;-74
2022/12/27 00:28:50;;;;;;;15.02;5.63;;;4.30;92.50;;;;;;4995989;28;20022;-76
2022/12/27 00:31:16;;;;;;;13.35;4.88;;;4.30;92.60;;;;;;4994146;28;20026;-74
2022/12/27 00:33:44;;;;;;;16.70;6.32;;;4.30;92.70;;;;;;4997978;28;20013;-77
2022/12/27 00:36:12;;;;;;;15.38;4.90;;;4.30;92.70;;;;;;4998856;28;20038;-76
2022/12/27 00:38:38;;;;;;;18.38;5.20;;;4.20;92.70;;;;;;5000407;28;20022;-76
2022/12/27 00:41:04;;;;;;;10.68;5.50;;;4.30;92.70;;;;;;4995294;28;20026;-74
2022/12/27 00:43:30;;;;;;;19.08;5.07;;;4.40;92.60;;;;;;4986948;28;20033;-75
2022/12/27 00:45:56;;;;;;;13.32;4.85;;;4.40;92.50;;;;;;4989752;28;20042;-75
2022/12/27 00:48:22;;;;;;;13.05;4.88;;;4.40;92.50;;;;;;5001580;28;20025;-74
2022/12/27 00:50:48;;;;;;;16.05;5.82;;;4.40;92.60;;;;;;4997726;28;20046;-74
2022/12/27 00:53:14;;;;;;;17.40;5.40;;;4.40;92.60;;;;;;4980293;28;20042;-74
2022/12/27 00:55:43;;;;;;;12.75;4.45;;;4.40;92.60;;;;;;4983408;28;20324;-76
2022/12/27 00:58:09;;;;;;;13.93;4.75;;;4.40;92.60;;;;;;5001840;28;20034;-75
2022/12/27 01:00:35;;;;;;;15.80;4.68;;;4.40;92.70;;;;;;4998516;28;20042;-75
2022/12/27 01:03:01;;;;;;;18.20;5.22;;;4.50;92.70;;;;;;4999438;28;20127;-76
2022/12/27 01:05:27;;;;;;;15.27;5.00;;;4.50;92.70;;;;;;4999687;28;20042;-74
2022/12/27 01:07:53;;;;;;;14.52;4.80;;;4.50;92.70;;;;;;4994375;28;20521;-73
2022/12/27 01:10:19;;;;;;;18.77;5.38;;;4.50;92.60;;;;;;4998448;28;20045;-76
2022/12/27 01:12:45;;;;;;;15.82;4.85;;;4.50;92.70;;;;;;5002782;28;20067;-74
2022/12/27 01:15:11;;;;;;;14.73;4.78;;;4.40;92.70;;;;;;4997015;28;20573;-75
2022/12/27 01:17:37;;;;;;;16.42;4.78;;;4.40;92.60;;;;;;4997791;28;20038;-73
2022/12/27 01:20:03;;;;;;;13.63;5.30;;;4.40;92.70;;;;;;4998109;28;20133;-73
2022/12/27 01:22:29;;;;;;;14.65;4.75;;;4.40;92.70;;;;;;5010430;28;20074;-76
2022/12/27 01:24:55;;;;;;;15.30;4.45;;;4.40;92.70;;;;;;5001011;28;20111;-75
2022/12/27 01:27:20;;;;;;;12.13;4.00;;;4.40;92.70;;;;;;5003259;28;20030;-74
2022/12/27 01:29:46;;;;;;;13.40;4.18;;;4.50;92.80;;;;;;4997495;28;20542;-76
2022/12/27 01:32:12;;;;;;;14.55;5.18;;;4.50;92.70;;;;;;5000349;28;20045;-74
2022/12/27 01:34:37;;;;;;;15.07;4.43;;;4.50;92.80;;;;;;5003044;28;20022;-75
2022/12/27 01:37:03;;;;;;;10.75;4.70;;;4.60;92.80;;;;;;5002405;28;20196;-74
2022/12/27 01:39:29;;;;;;;13.88;4.40;;;4.60;92.70;;;;;;4996893;28;20115;-75
2022/12/27 01:44:39;;;;;;;14.60;4.85;;;4.50;92.70;;;;;;5000219;28;20111;-76
2022/12/27 01:47:18;;;;;;;14.05;4.20;;;4.60;92.70;;;;;;4998229;28;20069;-73
2022/12/27 01:50:23;;;;;;;14.65;4.05;;;4.60;92.80;;;;;;4993900;28;20037;-74
2022/12/27 01:52:55;;;;;;;12.07;4.13;;;4.40;92.90;;;;;;4998897;28;20041;-72
2022/12/27 01:55:21;;;;;;;10.98;4.90;;;4.30;93.00;;;;;;5003391;28;20030;-74
2022/12/27 01:57:51;;;;;;;11.95;3.95;;;4.40;93.10;;;;;;4998998;28;20441;-78
2022/12/27 02:00:17;;;;;;;14.45;4.22;;;4.30;93.10;;;;;;4998541;28;20772;-76
2022/12/27 02:02:42;;;;;;;12.70;4.00;;;4.30;93.10;;;;;;5001433;28;20721;-76
2022/12/27 02:05:10;;;;;;;14.38;4.43;;;4.40;93.20;;;;;;4992471;28;20025;-75
2022/12/27 02:08:02;;;;;;;16.88;5.10;;;4.40;93.20;;;;;;5002490;28;20112;-74
2022/12/27 02:10:29;;;;;;;16.85;5.80;;;4.40;93.20;;;;;;5001412;28;20115;-75
2022/12/27 02:12:56;;;;;;;13.35;5.28;;;4.40;93.20;;;;;;4999644;28;20046;-75
2022/12/27 02:15:22;;;;;;;11.48;4.47;;;4.50;93.20;;;;;;5000998;28;20419;-75
2022/12/27 02:17:47;;;;;;;11.50;4.28;;;4.40;93.10;;;;;;4995822;28;20065;-75
2022/12/27 02:20:18;;;;;;;13.73;5.00;;;4.40;93.10;;;;;;5002950;28;20112;-75
2022/12/27 02:25:49;;;;;;;;;;;4.40;93.00;;;;;;5000728;28;20497;-75
2022/12/27 02:28:44;;;;;;;13.95;4.65;;;4.40;93.00;;;;;;5004403;28;19909;-75
2022/12/27 02:31:39;;;;;;;13.60;4.65;;;4.40;92.90;;;;;;4994628;28;20032;-75
2022/12/27 02:34:14;;;;;;;10.43;4.20;;;4.40;92.90;;;;;;4995572;28;20810;-76
2022/12/27 02:36:44;;;;;;;15.13;4.28;;;4.40;92.90;;;;;;5003142;28;20030;-77
2022/12/27 02:39:11;;;;;;;15.40;4.50;;;4.40;92.80;;;;;;4996045;28;20034;-76
2022/12/27 02:53:34;;;;;;;14.80;5.18;;;4.20;92.80;;;;;;5000453;28;20298;-76
2022/12/27 02:59:26;;;;;;;16.85;4.07;;;4.20;93.00;;;;;;5003189;28;21748;-76
2022/12/27 03:05:14;;;;;;;14.35;4.75;;;4.20;93.20;;;;;;5005289;28;20093;-77
2022/12/27 03:07:43;;;;;;;13.82;4.78;;;4.30;93.30;;;;;;4994169;28;20033;-77
2022/12/27 03:16:56;;;;;;;18.92;5.07;;;4.30;93.40;;;;;;4993341;28;20096;-76
2022/12/27 03:33:50;;;;;;;13.38;4.15;;;4.10;93.50;;;;;;5000523;28;20219;-76
2022/12/27 03:39:06;;;;;;;16.23;4.20;;;4.10;93.50;;;;;;4998780;28;20285;-76
2022/12/27 03:44:34;;;;;;;15.63;4.30;;;4.00;93.70;;;;;;5004971;28;20137;-77
2022/12/27 03:47:06;;;;;;;15.05;4.70;;;4.00;93.70;;;;;;4992692;28;20694;-76
2022/12/27 03:49:50;;;;;;;18.15;4.22;;;3.90;93.70;;;;;;4997396;28;20021;-76
2022/12/27 03:52:26;;;;;;;15.68;4.18;;;4.00;93.80;;;;;;4995811;28;20038;-78
2022/12/27 03:54:52;;;;;;;18.38;4.75;;;3.90;93.70;;;;;;4995664;28;20573;-76
2022/12/27 03:57:22;;;;;;;13.43;5.03;;;3.90;93.80;;;;;;5004804;28;20057;-76
2022/12/27 03:59:48;;;;;;;10.68;4.07;;;3.80;93.80;;;;;;4999302;28;20133;-76
2022/12/27 04:02:14;;;;;;;13.63;4.65;;;3.80;93.80;;;;;;4999581;28;20588;-77
2022/12/27 04:04:40;;;;;;;14.93;4.18;;;3.80;93.80;;;;;;5001033;28;20025;-76
2022/12/27 04:07:06;;;;;;;14.40;4.97;;;3.70;93.90;;;;;;5005341;28;20143;-76
2022/12/27 04:36:56;;;;;;;16.08;5.55;;;3.50;94.00;;;;;;5004392;28;20494;-76
2022/12/27 04:39:22;;;;;;;12.82;4.68;;;3.50;94.00;;;;;;5012282;28;20386;-76
2022/12/27 04:55:59;;;;;;;14.52;5.40;;;3.40;94.10;;;;;;4997386;28;20068;-74
2022/12/27 04:58:25;;;;;;;14.65;5.25;;;3.40;94.10;;;;;;5001053;28;20101;-75
2022/12/27 05:03:36;;;;;;;;;;;3.40;94.10;;;;;;5002501;28;20045;-75
2022/12/27 05:06:02;;;;;;;12.23;4.30;;;3.30;94.10;;;;;;5005253;28;19917;-75
2022/12/27 05:14:00;;;;;;;11.02;4.85;;;3.30;94.20;;;;;;5007656;28;19927;-76
2022/12/27 05:16:28;;;;;;;13.38;4.82;;;3.30;94.10;;;;;;4998912;28;20066;-75
2022/12/27 05:18:54;;;;;;;11.20;4.50;;;3.30;94.10;;;;;;5003008;28;20579;-74
2022/12/27 05:21:20;;;;;;;15.63;5.32;;;3.20;94.10;;;;;;4995343;28;20034;-75
2022/12/27 05:26:31;;;;;;;14.47;5.03;;;3.20;94.20;;;;;;5003829;28;20040;-74
2022/12/27 05:28:57;;;;;;;11.10;4.82;;;3.30;94.20;;;;;;5000785;28;20033;-75
2022/12/27 05:31:25;;;;;;;10.77;4.45;;;3.20;94.20;;;;;;5005714;28;20463;-75
2022/12/27 05:33:51;;;;;;;14.25;4.80;;;3.20;94.30;;;;;;5002439;28;20029;-76
2022/12/27 05:36:17;;;;;;;12.93;4.80;;;3.30;94.30;;;;;;5003055;28;20416;-76
2022/12/27 05:38:43;;;;;;;11.07;5.03;;;3.30;94.40;;;;;;5000052;28;20025;-75
2022/12/27 05:41:09;;;;;;;11.52;5.15;;;3.30;94.40;;;;;;5000402;28;20046;-75
2022/12/27 05:43:35;;;;;;;19.67;5.65;;;3.30;94.40;;;;;;4999735;28;20397;-75
2022/12/27 05:46:06;;;;;;;12.70;5.43;;;3.30;94.40;;;;;;4998899;28;20041;-75
2022/12/27 05:48:32;;;;;;;13.07;5.55;;;3.30;94.40;;;;;;5001510;28;20014;-76
2022/12/27 05:50:58;;;;;;;12.50;5.20;;;3.30;94.40;;;;;;5004740;28;20045;-74
2022/12/27 05:53:24;;;;;;;13.18;5.10;;;3.30;94.50;;;;;;4998087;28;20532;-75
2022/12/27 05:55:54;;;;;;;14.48;6.32;;;3.30;94.50;;;;;;4994663;28;20117;-75
2022/12/27 05:58:19;;;;;;;14.90;5.97;;;3.30;94.50;;;;;;5002934;28;20076;-74
2022/12/27 06:00:45;;;;;;;13.35;6.13;;;3.40;94.60;;;;;;5002525;28;20046;-76
2022/12/27 06:03:11;;;;;;;13.43;6.13;;;3.40;94.60;;;;;;5004817;28;20029;-74
2022/12/27 06:05:36;;;;;;;13.38;5.65;;;3.50;94.60;;;;;;4998276;28;20356;-75
2022/12/27 06:08:02;;;;;;;15.57;5.63;;;3.50;94.60;;;;;;4998825;28;20511;-74
2022/12/27 06:10:28;;;;;;;13.63;5.25;;;3.60;94.40;;;;;;5002393;28;20038;-74
2022/12/27 06:12:53;;;;;;;12.88;5.80;;;3.60;94.30;;;;;;4994457;28;20050;-75
2022/12/27 06:15:19;;;;;;;18.05;5.88;;;3.60;94.10;;;;;;4995645;28;20394;-74
2022/12/27 06:17:45;;;;;;;15.95;5.70;;;3.60;94.10;;;;;;5000638;28;20057;-76
2022/12/27 06:20:10;;;;;;;13.85;5.80;;;3.60;93.90;;;;;;5000842;28;20521;-75
2022/12/27 06:22:36;;;;;;;12.77;5.35;;;3.60;93.90;;;;;;4992678;28;20117;-76
2022/12/27 06:25:01;;;;;;;15.23;5.75;;;3.60;93.90;;;;;;5000537;28;20041;-75
2022/12/27 06:27:27;;;;;;;14.90;5.88;;;3.60;93.90;;;;;;4995335;28;20018;-74
2022/12/27 06:29:53;;;;;;;16.08;6.05;;;3.50;94.00;;;;;;5000005;28;20006;-75
2022/12/27 06:32:18;;;;;;;18.55;6.30;;;3.40;94.10;;;;;;4996501;28;20048;-75
2022/12/27 06:34:44;;;;;;;13.75;6.00;;;3.40;94.30;;;;;;5004658;28;20474;-74
2022/12/27 06:37:11;;;;;;;15.00;6.00;;;3.50;94.10;;;;;;4995809;28;20125;-76
2022/12/27 06:39:36;;;;;;;12.82;5.85;;;3.60;94.10;;;;;;4995918;28;20080;-75
2022/12/27 06:42:02;;;;;;;17.02;6.55;;;3.50;93.90;;;;;;4997903;28;20650;-75
2022/12/27 06:44:28;;;;;;;14.27;6.63;;;3.50;93.90;;;;;;4996562;28;20058;-75
2022/12/27 06:46:53;;;;;;;16.73;6.97;;;3.50;93.90;;;;;;5003652;28;20030;-75
2022/12/27 06:49:19;;;;;;;16.15;6.68;;;3.50;93.90;;;;;;5006402;28;20470;-75
2022/12/27 06:51:47;;;;;;;20.17;7.15;;;3.50;93.90;;;;;;5000879;28;20082;-77
2022/12/27 06:54:13;;;;;;;18.10;7.15;;;3.50;93.80;;;;;;4993222;28;20030;-74
2022/12/27 06:56:38;;;;;;;21.95;7.93;;;3.50;93.80;;;;;;4992884;28;20035;-76
2022/12/27 06:59:04;;;;;;;19.80;7.65;;;3.50;93.80;;;;;;4995263;28;20144;-74
2022/12/27 07:01:30;;;;;;;17.05;7.90;;;3.50;93.80;;;;;;4993727;28;20041;-74
2022/12/27 07:03:57;;;;;;;18.65;7.55;;;3.40;93.80;;;;;;4994575;28;20038;-75
2022/12/27 07:06:25;;;;;;;19.50;7.53;;;3.50;93.90;;;;;;4997193;28;20042;-74
2022/12/27 07:08:51;;;;;;;16.60;7.80;;;3.50;93.90;;;;;;4997076;28;20374;-75
2022/12/27 07:11:18;;;;;;;18.40;7.72;;;3.50;93.90;;;;;;4994858;28;20054;-75
2022/12/27 07:13:47;;;;;;;17.17;7.25;;;3.40;93.90;;;;;;4996484;28;20070;-74
2022/12/27 07:16:15;;;;;;;17.92;7.95;;;3.40;93.80;;;;;;4994413;28;20125;-75
2022/12/27 07:18:41;;;;;;;16.80;8.38;;;3.40;93.80;;;;;;4996405;28;20029;-76
2022/12/27 07:21:13;;;;;;;17.95;8.55;;;3.40;93.90;;;;;;4993201;28;20037;-74
2022/12/27 07:23:39;;;;;;;17.48;8.25;;;3.40;93.90;;;;;;4993978;28;20033;-75
2022/12/27 07:26:07;;;;;;;17.48;8.40;;;3.40;93.90;;;;;;4991483;28;20054;-75
2022/12/27 07:28:33;;;;;;;22.90;8.60;;;3.30;94.00;;;;;;4992685;28;20026;-75
2022/12/27 07:30:59;;;;;;;16.13;8.35;;;3.30;94.10;;;;;;4993966;28;20041;-74
2022/12/27 07:33:25;;;;;;;14.43;8.00;;;3.40;94.00;;;;;;4993963;28;20101;-75
2022/12/27 07:35:58;;;;;;;14.10;7.45;;;3.50;94.00;;;;;;4992665;28;20038;-74
2022/12/27 07:38:24;;;;;;;16.67;8.70;;;3.50;94.00;;;;;;5000320;28;20017;-75
2022/12/27 07:40:50;;;;;;;17.30;9.13;;;3.60;94.10;;;;;;4998306;28;20171;-76
2022/12/27 07:43:16;;;;;;;17.10;7.88;;;3.60;94.10;;;;;;4994617;28;20030;-74
2022/12/27 07:45:41;;;;;;;17.15;8.25;;;3.60;94.00;;;;;;4992541;28;20504;-74
2022/12/27 07:48:07;;;;;;;16.25;8.65;;;3.60;94.00;;;;;;4993808;28;20022;-74
2022/12/27 07:50:33;;;;;;;16.08;7.95;;;3.60;94.00;;;;;;4992847;28;20041;-76
2022/12/27 07:52:59;;;;;;;19.35;7.65;;;3.60;93.90;;;;;;4997944;28;20137;-78
2022/12/27 07:55:24;;;;;;;20.90;8.02;;;3.60;94.00;;;;;;4998172;28;20418;-75
2022/12/27 07:57:50;;;;;;;17.45;7.60;;;3.70;94.00;;;;;;4995419;28;20029;-79
2022/12/27 08:00:16;;;;;;;15.27;8.45;;;3.60;94.00;;;;;;4994593;28;20037;-77
2022/12/27 08:02:42;;;;;;;17.63;8.77;;;3.70;94.00;;;;;;5000710;28;20175;-76
2022/12/27 08:05:08;;;;;;;18.65;8.70;;;3.80;94.00;;;;;;4985482;28;20037;-76
2022/12/27 08:07:35;;;;;;;20.60;8.43;;;3.70;94.00;;;;;;4985157;28;20037;-76
2022/12/27 08:10:01;;;;;;;15.38;8.73;;;3.80;94.10;;;;;;4990647;28;20033;-78
2022/12/27 08:12:27;;;;;;;17.67;7.57;;;3.90;94.10;;;;;;4987874;28;20374;-75
2022/12/27 08:14:52;;;;;;;22.65;8.55;;;4.00;94.00;;;;;;4986048;28;20358;-78
2022/12/27 08:17:21;;;;;;;15.85;7.85;;;4.00;94.00;;;;;;4982493;28;20041;-76
2022/12/27 08:19:49;;;;;;;21.75;9.27;;;4.10;94.00;;;;;;4990240;28;20046;-77
2022/12/27 08:22:15;;;;;;;16.70;8.48;;;4.10;94.00;;;;;;4988779;28;20065;-77
2022/12/27 08:24:42;;;;;;;20.83;9.30;;;4.10;94.00;;;;;;4985963;28;20675;-78
2022/12/27 08:27:08;;;;;;;15.18;8.63;;;4.10;94.00;;;;;;4986720;28;20064;-75
2022/12/27 08:29:34;;;;;;;17.70;8.02;;;4.20;94.00;;;;;;4983607;28;20026;-77
2022/12/27 08:32:00;;;;;;;17.13;8.18;;;4.30;94.00;;;;;;4985282;28;20031;-77
2022/12/27 08:34:26;;;;;;;16.45;7.40;;;4.40;94.00;;;;;;4986322;28;20474;-77
2022/12/27 08:36:51;;;;;;;20.40;7.80;;;4.50;94.00;;;;;;4983782;28;20273;-77
2022/12/27 08:39:17;;;;;;;16.98;8.00;;;4.50;94.00;;;;;;4987275;28;20018;-78
2022/12/27 08:41:43;;;;;;;16.77;8.10;;;4.60;93.90;;;;;;4985029;28;20057;-76
2022/12/27 08:44:09;;;;;;;24.10;11.45;;;4.60;93.70;;;;;;4983981;28;20674;-76
2022/12/27 08:46:35;;;;;;;16.52;7.88;;;4.70;93.60;;;;;;4986735;28;20057;-77
2022/12/27 08:49:01;;;;;;;17.48;7.60;;;4.80;93.50;;;;;;4986730;28;20026;-74
2022/12/27 08:51:27;;;;;;;16.92;7.50;;;4.80;93.30;;;;;;4989219;28;20041;-76
2022/12/27 08:53:53;;;;;;;14.75;7.63;;;4.80;93.10;;;;;;4982615;28;20117;-75
2022/12/27 08:56:19;;;;;;;14.27;7.70;;;4.80;92.90;;;;;;4993243;28;20121;-77
2022/12/27 08:58:47;;;;;;;18.73;9.18;;;4.70;92.70;;;;;;4991810;28;20521;-76
2022/12/27 09:01:12;;;;;;;14.98;6.80;;;4.70;92.60;;;;;;4990874;28;20041;-75
2022/12/27 09:03:38;;;;;;;14.93;7.80;;;4.70;92.50;;;;;;4991445;28;20028;-77
2022/12/27 09:06:19;;;;;;;17.42;8.80;;;4.70;92.40;;;;;;4991734;28;20400;-76
2022/12/27 09:08:46;;;;;;;15.25;7.82;;;4.70;92.40;;;;;;4989882;28;20021;-76
2022/12/27 09:11:13;;;;;;;18.50;8.50;;;4.80;92.50;;;;;;4996000;28;20025;-74
2022/12/27 09:13:39;;;;;;;17.08;8.90;;;4.90;92.40;;;;;;4995209;28;20041;-77
2022/12/27 09:16:10;;;;;;;15.57;8.93;;;5.10;92.20;;;;;;4988198;28;20034;-76
2022/12/27 09:18:39;;;;;;;35.50;18.85;;;5.00;91.70;;;;;;4999136;28;20029;-76
2022/12/27 09:21:08;;;;;;;23.45;15.15;;;4.90;91.50;;;;;;4992423;28;20115;-76
2022/12/27 09:23:34;;;;;;;26.40;12.77;;;4.90;91.50;;;;;;4996848;28;20163;-75
2022/12/27 09:26:27;;;;;;;15.38;7.88;;;5.00;91.50;;;;;;4983336;28;20195;-76
2022/12/27 09:28:54;;;;;;;19.95;9.80;;;4.90;91.40;;;;;;4989287;28;20034;-76
2022/12/27 09:31:21;;;;;;;14.57;10.75;;;4.90;91.40;;;;;;4995156;28;20083;-76
2022/12/27 09:33:47;;;;;;;19.67;12.25;;;4.90;91.40;;;;;;4991085;28;20017;-77
2022/12/27 09:36:25;;;;;;;24.67;17.38;;;4.90;91.50;;;;;;4993709;28;20030;-77
2022/12/27 09:38:52;;;;;;;24.42;13.02;;;4.90;91.50;;;;;;4989375;28;20018;-77
2022/12/27 09:41:37;;;;;;;27.90;16.48;;;4.90;91.70;;;;;;4989425;28;20038;-76
2022/12/27 09:44:25;;;;;;;19.20;9.48;;;4.90;91.90;;;;;;4991755;28;20029;-75
2022/12/27 09:46:57;;;;;;;16.77;8.88;;;4.90;91.90;;;;;;4986691;28;20093;-76
2022/12/27 09:49:31;;;;;;;16.67;7.15;;;4.90;92.00;;;;;;4981462;28;20045;-76
2022/12/27 09:52:03;;;;;;;15.80;9.15;;;5.00;92.00;;;;;;4979868;28;20141;-77
2022/12/27 09:54:37;;;;;;;12.90;8.90;;;5.10;92.10;;;;;;4980265;28;20739;-77
2022/12/27 09:57:08;;;;;;;20.23;11.15;;;5.20;92.10;;;;;;4986647;28;20248;-78
2022/12/27 09:59:40;;;;;;;28.15;17.33;;;5.30;92.00;;;;;;4998706;28;20075;-76
2022/12/27 10:02:20;;;;;;;32.15;16.05;;;5.50;91.90;;;;;;4988658;28;20506;-77
2022/12/27 10:04:46;;;;;;;43.75;25.25;;;5.50;91.60;;;;;;4987260;28;20050;-77
2022/12/27 10:07:44;;;;;;;49.83;27.65;;;5.60;91.70;;;;;;4990327;28;20458;-75
2022/12/27 10:10:57;;;;;;;37.75;20.58;;;5.90;91.80;;;;;;4995642;28;20084;-77
2022/12/27 10:13:44;;;;;;;27.67;16.08;;;6.30;91.40;;;;;;4973634;28;20054;-77
2022/12/27 10:16:39;;;;;;;17.45;9.73;;;6.50;90.60;;;;;;4987442;28;20038;-75
2022/12/27 10:19:35;;;;;;;15.70;9.13;;;6.60;89.90;;;;;;4990165;28;20371;-78
2022/12/27 10:22:16;;;;;;;17.48;8.05;;;6.80;89.60;;;;;;4992550;28;20543;-75
2022/12/27 10:24:49;;;;;;;16.13;8.70;;;6.80;88.70;;;;;;4996037;28;20022;-75
2022/12/27 10:27:22;;;;;;;14.95;7.38;;;6.70;88.70;;;;;;4989835;28;20038;-75
2022/12/27 10:29:50;;;;;;;16.38;7.68;;;6.90;88.70;;;;;;4991859;28;20026;-77
2022/12/27 10:32:16;;;;;;;14.75;7.28;;;7.00;88.70;;;;;;4987601;28;20057;-75
2022/12/27 10:34:42;;;;;;;13.38;7.13;;;7.10;88.70;;;;;;4994308;28;20244;-75
2022/12/27 10:37:14;;;;;;;16.25;6.05;;;7.20;88.30;;;;;;4987126;28;20410;-76
2022/12/27 10:39:41;;;;;;;12.77;5.93;;;7.20;88.00;;;;;;4981401;28;20113;-76
2022/12/27 10:42:40;;;;;;;13.10;6.07;;;7.10;87.60;;;;;;4995338;28;20040;-77
2022/12/27 10:45:27;;;;;;;15.15;5.90;;;7.00;87.70;;;;;;4985171;28;20386;-76
2022/12/27 10:47:56;;;;;;;19.17;5.95;;;7.00;87.90;;;;;;4990180;28;20037;-77
2022/12/27 10:50:24;;;;;;;12.23;6.07;;;7.00;88.20;;;;;;4984904;28;20053;-75
2022/12/27 10:52:50;;;;;;;13.60;6.05;;;7.00;88.30;;;;;;4993822;28;20044;-76
2022/12/27 10:55:33;;;;;;;12.18;5.93;;;6.90;88.10;;;;;;4986842;28;20065;-76
2022/12/27 10:58:17;;;;;;;14.38;6.05;;;6.90;88.20;;;;;;4991474;28;20033;-78
2022/12/27 11:00:53;;;;;;;14.35;6.07;;;7.00;88.10;;;;;;4989313;28;20349;-78
2022/12/27 11:03:18;;;;;;;14.90;6.10;;;6.90;88.10;;;;;;4991999;28;20072;-77
2022/12/27 11:05:59;;;;;;;12.48;5.93;;;6.90;88.20;;;;;;4990206;28;20042;-78
2022/12/27 11:08:25;;;;;;;11.27;5.00;;;7.00;88.10;;;;;;4989074;28;20029;-75
2022/12/27 11:11:15;;;;;;;15.68;4.90;;;6.90;88.10;;;;;;4994155;28;20466;-77
2022/12/27 11:13:41;;;;;;;12.43;5.22;;;7.00;88.00;;;;;;4974100;28;20133;-76
2022/12/27 11:16:24;;;;;;;15.35;5.57;;;7.00;88.00;;;;;;4987150;28;20422;-76
2022/12/27 11:18:54;;;;;;;14.80;5.72;;;7.00;88.10;;;;;;4992591;28;20022;-75
2022/12/27 11:21:20;;;;;;;14.55;5.75;;;7.00;88.10;;;;;;4985419;28;20458;-77
2022/12/27 11:23:52;;;;;;;13.95;6.25;;;7.00;88.20;;;;;;4987106;28;20033;-77
2022/12/27 11:26:32;;;;;;;16.35;5.60;;;6.90;88.10;;;;;;4985076;28;20326;-75
2022/12/27 11:29:00;;;;;;;11.63;5.05;;;6.90;88.10;;;;;;4986887;28;20112;-77
2022/12/27 11:31:36;;;;;;;16.55;6.18;;;7.00;88.10;;;;;;4990298;28;20038;-76
2022/12/27 11:34:24;;;;;;;14.15;5.18;;;7.00;88.10;;;;;;4987510;28;20022;-75
2022/12/27 11:36:53;;;;;;;14.57;5.70;;;7.10;87.90;;;;;;4989714;28;20153;-75
2022/12/27 11:39:51;;;;;;;11.90;5.35;;;7.10;87.70;;;;;;4990823;28;20038;-75
2022/12/27 11:42:31;;;;;;;14.15;5.22;;;7.00;87.60;;;;;;4992121;28;20539;-74
2022/12/27 11:45:02;;;;;;;12.93;5.55;;;7.10;87.60;;;;;;4990127;28;20093;-77
2022/12/27 11:47:39;;;;;;;11.98;6.18;;;7.10;87.60;;;;;;4991472;28;20132;-77
2022/12/27 11:50:04;;;;;;;12.55;5.80;;;7.20;87.40;;;;;;4992064;28;20030;-77
2022/12/27 11:52:57;;;;;;;13.73;5.07;;;7.20;87.30;;;;;;4988848;28;20096;-75
2022/12/27 11:55:38;;;;;;;12.48;5.13;;;7.20;87.30;;;;;;4993257;28;20026;-77
2022/12/27 11:58:31;;;;;;;15.63;5.93;;;7.20;87.30;;;;;;4986098;28;20038;-76
2022/12/27 12:01:22;;;;;;;14.65;5.05;;;7.30;87.50;;;;;;4986757;28;20046;-76
2022/12/27 12:03:56;;;;;;;13.13;5.10;;;7.30;87.30;;;;;;4995416;28;20237;-77
2022/12/27 12:06:34;;;;;;;17.33;6.00;;;7.40;87.40;;;;;;4988259;28;20409;-77
2022/12/27 12:09:20;;;;;;;12.40;5.90;;;7.50;87.40;;;;;;4992197;28;20430;-76
2022/12/27 12:12:00;;;;;;;13.13;5.78;;;7.50;87.30;;;;;;4996369;28;20061;-77
2022/12/27 12:14:48;;;;;;;16.67;6.03;;;7.60;87.20;;;;;;4987410;28;20049;-77
2022/12/27 12:17:17;;;;;;;11.95;5.43;;;7.70;87.10;;;;;;4988726;28;20521;-78
2022/12/27 12:20:17;;;;;;;18.98;6.93;;;7.70;87.00;;;;;;4992722;28;20030;-77
2022/12/27 12:23:00;;;;;;;17.17;5.70;;;7.80;86.70;;;;;;4988936;28;20584;-77
2022/12/27 12:25:55;;;;;;;12.80;5.60;;;7.90;86.70;;;;;;4993499;28;20049;-77
2022/12/27 12:28:33;;;;;;;10.52;5.43;;;8.10;86.70;;;;;;4983581;28;20087;-75
2022/12/27 12:31:33;;;;;;;12.82;4.80;;;8.10;86.20;;;;;;4994189;28;20092;-76
2022/12/27 12:34:23;;;;;;;15.77;5.82;;;8.10;85.80;;;;;;5014542;28;20041;-76
2022/12/27 12:37:11;;;;;;;14.43;5.65;;;8.30;85.40;;;;;;5006220;28;20033;-76
2022/12/27 12:39:56;;;;;;;18.63;6.05;;;8.40;84.80;;;;;;4996216;28;20033;-76
2022/12/27 12:42:47;;;;;;;18.30;4.80;;;8.40;84.40;;;;;;4999782;28;20038;-77
2022/12/27 12:45:31;;;;;;;12.75;4.68;;;8.40;83.90;;;;;;5002988;28;21004;-75
2022/12/27 12:48:44;;;;;;;13.10;4.95;;;8.50;84.20;;;;;;4999037;28;20479;-76
2022/12/27 12:51:48;;;;;;;12.85;4.80;;;8.60;84.20;;;;;;5013810;28;20038;-75
2022/12/27 12:54:26;;;;;;;13.52;5.03;;;8.60;83.90;;;;;;5002966;28;20056;-77
2022/12/27 12:57:08;;;;;;;14.77;5.40;;;8.80;83.50;;;;;;5003943;28;20068;-75
2022/12/27 12:59:48;;;;;;;12.02;4.93;;;8.90;83.20;;;;;;4998267;28;20022;-73
2022/12/27 13:02:35;;;;;;;14.05;4.82;;;9.10;82.90;;;;;;5002719;28;20132;-74
2022/12/27 13:05:10;;;;;;;13.68;4.05;;;9.10;82.30;;;;;;5001108;28;20036;-75
2022/12/27 13:08:03;;;;;;;12.52;4.45;;;8.90;82.30;;;;;;4998144;28;20065;-75
2022/12/27 13:10:46;;;;;;;11.63;4.63;;;8.90;82.20;;;;;;5000713;28;20033;-75
2022/12/27 13:13:16;;;;;;;13.15;4.75;;;8.80;82.40;;;;;;5000915;28;20145;-73
2022/12/27 13:16:33;;;;;;;13.93;4.43;;;8.70;82.50;;;;;;4987078;28;20038;-74
2022/12/27 13:19:36;;;;;;;12.02;3.67;;;8.60;82.70;;;;;;4988606;28;20830;-74
2022/12/27 13:22:07;;;;;;;13.07;4.47;;;8.60;82.90;;;;;;4987733;28;20134;-74
2022/12/27 13:24:51;;;;;;;11.65;4.05;;;8.60;83.30;;;;;;5001651;28;20512;-74
2022/12/27 13:27:42;;;;;;;9.93;3.97;;;8.80;83.10;;;;;;4990064;28;20038;-74
2022/12/27 13:30:23;;;;;;;9.43;4.25;;;8.70;83.10;;;;;;4988344;28;20264;-75
2022/12/27 13:33:26;;;;;;;10.30;4.13;;;8.70;83.20;;;;;;4987386;28;20034;-74
2022/12/27 13:36:11;;;;;;;15.45;5.20;;;8.70;83.20;;;;;;4990560;28;20064;-73
2022/12/27 13:38:43;;;;;;;12.15;4.40;;;8.70;83.40;;;;;;4988490;28;20027;-75
2022/12/27 13:41:34;;;;;;;9.60;3.83;;;8.70;83.30;;;;;;4998348;28;20045;-73
2022/12/27 13:44:03;;;;;;;12.73;4.50;;;8.70;83.30;;;;;;5001365;28;20112;-73
2022/12/27 13:47:20;;;;;;;10.82;4.18;;;8.90;83.00;;;;;;5001971;28;20034;-74
2022/12/27 13:49:51;;;;;;;12.70;3.83;;;8.90;82.70;;;;;;4993925;28;20100;-75
2022/12/27 13:52:37;;;;;;;12.05;4.22;;;8.90;82.40;;;;;;4986656;28;20062;-73
2022/12/27 13:55:29;;;;;;;12.77;4.95;;;8.90;82.00;;;;;;4993117;28;20021;-74
2022/12/27 13:58:24;;;;;;;11.50;3.97;;;9.00;82.30;;;;;;4993993;28;20386;-73
2022/12/27 14:01:08;;;;;;;12.82;3.88;;;9.10;82.00;;;;;;5029917;28;20025;-73
2022/12/27 14:03:59;;;;;;;10.98;4.00;;;9.20;81.70;;;;;;5002437;28;20101;-73
2022/12/27 14:06:42;;;;;;;10.90;4.07;;;9.20;81.60;;;;;;5000444;28;20104;-73
2022/12/27 14:09:27;;;;;;;12.15;4.32;;;9.10;81.50;;;;;;5001417;28;20136;-76
2022/12/27 14:11:56;;;;;;;;;;;9.10;81.70;;;;;;5000267;28;20121;-74
2022/12/27 14:14:25;;;;;;;10.15;3.40;;;9.00;81.90;;;;;;5000499;28;19921;-74
2022/12/27 14:17:05;;;;;;;11.93;4.85;;;9.00;81.90;;;;;;4997214;28;20060;-74
2022/12/27 14:19:50;;;;;;;9.90;5.25;;;8.90;82.10;;;;;;4994314;28;20488;-73
2022/12/27 14:22:34;;;;;;;10.97;4.13;;;8.90;82.30;;;;;;4998177;28;20045;-74
2022/12/27 14:25:27;;;;;;;12.63;4.60;;;8.80;82.10;;;;;;4996139;28;20120;-74
2022/12/27 14:28:27;;;;;;;11.73;5.53;;;8.80;82.20;;;;;;4995842;28;20046;-73
2022/12/27 14:31:13;;;;;;;10.13;4.25;;;8.70;82.20;;;;;;4999814;28;20088;-73
2022/12/27 14:33:57;;;;;;;12.15;5.95;;;8.60;82.50;;;;;;5004533;28;21079;-74
2022/12/27 14:36:56;;;;;;;13.38;6.13;;;8.60;82.70;;;;;;4996758;28;20132;-74
2022/12/27 14:39:40;;;;;;;13.30;4.80;;;8.60;83.00;;;;;;4996282;28;20091;-74
2022/12/27 14:42:45;;;;;;;18.17;11.20;;;8.50;83.10;;;;;;4998410;28;20088;-73
2022/12/27 14:45:25;;;;;;;24.15;13.98;;;8.40;83.40;;;;;;4971172;28;20112;-71
2022/12/27 14:48:20;;;;;;;21.08;7.93;;;8.40;83.50;;;;;;5004682;28;20032;-73
2022/12/27 14:50:54;;;;;;;11.37;4.77;;;8.30;83.80;;;;;;5012285;28;20040;-73
2022/12/27 14:53:54;;;;;;;11.45;5.93;;;8.20;83.80;;;;;;4994366;28;20034;-73
2022/12/27 14:56:32;;;;;;;17.33;7.30;;;8.20;84.00;;;;;;4995664;28;20470;-72
2022/12/27 14:59:32;;;;;;;31.95;19.75;;;8.20;84.00;;;;;;5000325;28;20071;-73
2022/12/27 15:02:18;;;;;;;18.00;8.75;;;8.10;84.30;;;;;;5002112;28;20044;-73
2022/12/27 15:05:06;;;;;;;14.00;5.35;;;8.10;84.50;;;;;;4998542;28;20083;-72